createdAt,value
2017-12-27T00:01:46.405Z,1.80
2017-12-27T00:04:19.631Z,1.80
2017-12-27T00:06:52.801Z,1.80
2017-12-27T00:09:26.008Z,1.90
2017-12-27T00:11:59.949Z,1.80
2017-12-27T00:14:33.889Z,1.80
2017-12-27T00:17:07.068Z,1.80
2017-12-27T00:19:40.284Z,1.80
2017-12-27T00:22:14.143Z,1.80
2017-12-27T00:24:48.036Z,1.80
2017-12-27T00:27:21.232Z,1.80
2017-12-27T00:32:54.643Z,1.80
2017-12-27T00:35:22.188Z,1.70
2017-12-27T00:37:49.760Z,1.70
2017-12-27T00:40:17.292Z,1.60
2017-12-27T00:42:44.848Z,1.60
2017-12-27T00:45:12.383Z,1.50
2017-12-27T00:47:40.739Z,1.60
2017-12-27T00:50:08.466Z,1.60
2017-12-27T00:52:36.810Z,1.60
2017-12-27T00:55:04.373Z,1.60
2017-12-27T00:57:32.685Z,1.50
2017-12-27T01:00:00.241Z,1.50
2017-12-27T01:02:27.786Z,1.50
2017-12-27T01:04:55.349Z,1.50
2017-12-27T01:07:22.891Z,1.50
2017-12-27T01:09:50.459Z,1.50
2017-12-27T01:12:18.036Z,1.50
2017-12-27T01:14:45.703Z,1.50
2017-12-27T01:17:13.238Z,1.50
2017-12-27T01:19:40.856Z,1.50
2017-12-27T01:22:08.387Z,1.50
2017-12-27T01:24:35.946Z,1.50
2017-12-27T01:27:03.493Z,1.50
2017-12-27T01:29:31.812Z,1.50
2017-12-27T01:31:59.347Z,1.50
2017-12-27T01:34:26.896Z,1.50
2017-12-27T01:36:54.442Z,1.50
2017-12-27T01:39:22.776Z,1.50
2017-12-27T01:41:50.312Z,1.50
2017-12-27T01:44:17.923Z,1.40
2017-12-27T01:46:46.320Z,1.40
2017-12-27T01:49:13.901Z,1.50
2017-12-27T01:51:42.221Z,1.40
2017-12-27T01:54:09.766Z,1.50
2017-12-27T01:56:37.316Z,1.40
2017-12-27T01:59:04.854Z,1.50
2017-12-27T02:01:33.861Z,1.50
2017-12-27T02:04:02.168Z,1.50
2017-12-27T02:06:30.484Z,1.50
2017-12-27T02:08:58.023Z,1.40
2017-12-27T02:11:25.586Z,1.50
2017-12-27T02:13:53.205Z,1.40
2017-12-27T02:16:20.785Z,1.50
2017-12-27T02:18:48.338Z,1.50
2017-12-27T02:21:15.903Z,1.50
2017-12-27T02:23:43.449Z,1.50
2017-12-27T02:26:11.748Z,1.50
2017-12-27T02:28:39.301Z,1.50
2017-12-27T02:31:06.836Z,1.50
2017-12-27T02:33:35.151Z,1.50
2017-12-27T02:36:02.699Z,1.50
2017-12-27T02:38:42.047Z,1.50
2017-12-27T02:41:09.579Z,1.50
2017-12-27T02:43:37.142Z,1.50
2017-12-27T02:46:05.448Z,1.50
2017-12-27T02:48:33.000Z,1.50
2017-12-27T02:51:00.548Z,1.50
2017-12-27T02:53:28.876Z,1.40
2017-12-27T02:55:56.404Z,1.40
2017-12-27T02:58:23.960Z,1.40
2017-12-27T03:00:51.505Z,1.40
2017-12-27T03:03:19.073Z,1.30
2017-12-27T03:05:46.701Z,1.30
2017-12-27T03:08:15.217Z,1.30
2017-12-27T03:10:43.545Z,1.20
2017-12-27T03:13:11.080Z,1.20
2017-12-27T03:15:38.637Z,1.20
2017-12-27T03:18:06.183Z,1.10
2017-12-27T03:20:33.740Z,1.20
2017-12-27T03:23:02.052Z,1.10
2017-12-27T03:25:29.605Z,1.10
2017-12-27T03:27:57.160Z,1.20
2017-12-27T03:30:24.733Z,1.10
2017-12-27T03:32:53.038Z,1.10
2017-12-27T03:35:20.593Z,1.10
2017-12-27T03:37:48.137Z,1.10
2017-12-27T03:40:15.710Z,1.20
2017-12-27T03:42:43.268Z,1.10
2017-12-27T03:45:11.601Z,1.10
2017-12-27T03:47:39.140Z,1.10
2017-12-27T03:50:06.681Z,1.10
2017-12-27T03:52:34.241Z,1.10
2017-12-27T03:55:01.785Z,1.20
2017-12-27T03:57:29.342Z,1.20
2017-12-27T03:59:56.888Z,1.20
2017-12-27T04:02:24.449Z,1.20
2017-12-27T04:04:52.772Z,1.20
2017-12-27T04:07:21.100Z,1.20
2017-12-27T04:09:48.641Z,1.20
2017-12-27T04:12:16.968Z,1.30
2017-12-27T04:14:44.505Z,1.30
2017-12-27T04:17:12.081Z,1.30
2017-12-27T04:19:39.619Z,1.20
2017-12-27T04:22:07.176Z,1.30
2017-12-27T04:24:35.488Z,1.30
2017-12-27T04:27:03.816Z,1.30
2017-12-27T04:29:31.361Z,1.30
2017-12-27T04:31:58.937Z,1.40
2017-12-27T04:34:26.472Z,1.40
2017-12-27T04:36:54.017Z,1.30
2017-12-27T04:39:22.369Z,1.30
2017-12-27T04:41:49.913Z,1.30
2017-12-27T04:44:18.250Z,1.30
2017-12-27T04:46:45.793Z,1.20
2017-12-27T04:49:14.132Z,1.30
2017-12-27T04:51:41.676Z,1.30
2017-12-27T04:54:10.004Z,1.20
2017-12-27T04:56:37.557Z,1.20
2017-12-27T04:59:05.885Z,1.20
2017-12-27T05:01:33.442Z,1.20
2017-12-27T05:04:01.764Z,1.20
2017-12-27T05:06:29.313Z,1.10
2017-12-27T05:08:56.893Z,1.20
2017-12-27T05:11:24.433Z,1.10
2017-12-27T05:13:52.016Z,1.10
2017-12-27T05:16:19.566Z,1.10
2017-12-27T05:18:47.880Z,1.10
2017-12-27T05:21:16.209Z,1.10
2017-12-27T05:23:43.756Z,1.10
2017-12-27T05:26:12.092Z,1.10
2017-12-27T05:28:39.641Z,1.10
2017-12-27T05:31:07.972Z,1.00
2017-12-27T05:33:35.512Z,1.00
2017-12-27T05:36:03.074Z,1.00
2017-12-27T05:38:30.611Z,1.00
2017-12-27T05:40:58.174Z,0.90
2017-12-27T05:43:25.721Z,0.90
2017-12-27T05:45:53.281Z,0.90
2017-12-27T05:48:20.820Z,0.90
2017-12-27T05:50:48.385Z,0.90
2017-12-27T05:53:16.693Z,0.80
2017-12-27T05:55:44.244Z,0.80
2017-12-27T05:58:11.814Z,0.80
2017-12-27T06:00:39.376Z,0.80
2017-12-27T06:03:07.704Z,0.70
2017-12-27T06:05:35.252Z,0.70
2017-12-27T06:08:03.581Z,0.70
2017-12-27T06:10:31.125Z,0.70
2017-12-27T06:12:58.695Z,0.70
2017-12-27T06:15:26.236Z,0.80
2017-12-27T06:17:53.792Z,0.70
2017-12-27T06:20:22.106Z,0.70
2017-12-27T06:22:50.435Z,0.70
2017-12-27T06:25:17.984Z,0.70
2017-12-27T06:27:45.557Z,0.70
2017-12-27T06:30:13.894Z,0.70
2017-12-27T06:32:41.439Z,0.60
2017-12-27T06:35:09.776Z,0.70
2017-12-27T06:37:37.341Z,0.60
2017-12-27T06:40:05.664Z,0.50
2017-12-27T06:42:33.204Z,0.50
2017-12-27T06:45:00.772Z,0.50
2017-12-27T06:47:28.317Z,0.50
2017-12-27T06:49:55.877Z,0.40
2017-12-27T06:52:24.224Z,0.40
2017-12-27T06:54:51.788Z,0.40
2017-12-27T06:57:19.342Z,0.40
2017-12-27T06:59:47.676Z,0.30
2017-12-27T07:02:15.470Z,0.30
2017-12-27T07:04:43.040Z,0.20
2017-12-27T07:07:10.589Z,0.20
2017-12-27T07:09:38.179Z,0.20
2017-12-27T07:12:05.757Z,0.20
2017-12-27T07:14:33.307Z,0.20
2017-12-27T07:17:00.889Z,0.20
2017-12-27T07:19:28.511Z,0.20
2017-12-27T07:21:56.077Z,0.20
2017-12-27T07:24:23.633Z,0.20
2017-12-27T07:26:51.198Z,0.30
2017-12-27T07:29:18.736Z,0.30
2017-12-27T07:31:46.305Z,0.40
2017-12-27T07:34:13.853Z,0.40
2017-12-27T07:36:42.213Z,0.40
2017-12-27T07:39:09.833Z,0.40
2017-12-27T07:41:37.419Z,0.40
2017-12-27T07:44:05.785Z,0.50
2017-12-27T07:46:33.373Z,0.40
2017-12-27T07:49:01.062Z,0.50
2017-12-27T07:51:28.673Z,0.50
2017-12-27T07:53:56.258Z,0.60
2017-12-27T07:56:24.572Z,0.70
2017-12-27T07:58:52.896Z,0.70
2017-12-27T08:01:20.436Z,0.70
2017-12-27T08:03:47.994Z,0.70
2017-12-27T08:06:15.548Z,0.80
2017-12-27T08:08:43.108Z,0.80
2017-12-27T08:11:10.652Z,0.90
2017-12-27T08:13:38.213Z,0.90
2017-12-27T08:16:05.760Z,0.90
2017-12-27T08:18:33.333Z,1.00
2017-12-27T08:21:00.886Z,1.00
2017-12-27T08:23:28.433Z,1.10
2017-12-27T08:25:55.993Z,1.10
2017-12-27T08:28:24.299Z,1.20
2017-12-27T08:30:51.870Z,1.10
2017-12-27T08:33:20.290Z,1.20
2017-12-27T08:35:47.852Z,1.20
2017-12-27T08:38:16.202Z,1.40
2017-12-27T08:40:43.767Z,1.30
2017-12-27T08:43:11.304Z,1.40
2017-12-27T08:45:38.860Z,1.50
2017-12-27T08:48:06.408Z,1.50
2017-12-27T08:50:34.748Z,1.70
2017-12-27T08:53:02.297Z,1.70
2017-12-27T08:55:30.641Z,1.90
2017-12-27T08:57:58.187Z,1.80
2017-12-27T09:00:25.732Z,1.90
2017-12-27T09:02:53.293Z,2.00
2017-12-27T09:05:20.840Z,2.10
2017-12-27T09:07:49.164Z,2.20
2017-12-27T09:10:16.716Z,2.20
2017-12-27T09:12:45.098Z,2.40
2017-12-27T09:15:12.653Z,2.30
2017-12-27T09:17:40.212Z,2.40
2017-12-27T09:20:07.760Z,2.50
2017-12-27T09:22:36.089Z,2.60
2017-12-27T09:25:03.787Z,2.60
2017-12-27T09:27:31.350Z,2.70
2017-12-27T09:29:59.658Z,2.80
2017-12-27T09:32:27.260Z,2.80
2017-12-27T09:34:54.849Z,2.80
2017-12-27T09:37:22.376Z,2.80
2017-12-27T09:39:50.728Z,2.90
2017-12-27T09:42:18.298Z,2.90
2017-12-27T09:44:45.859Z,2.90
2017-12-27T09:47:13.460Z,3.00
2017-12-27T09:49:41.026Z,3.00
2017-12-27T09:52:08.571Z,3.00
2017-12-27T09:54:36.901Z,2.90
2017-12-27T09:57:04.445Z,2.90
2017-12-27T09:59:32.005Z,2.90
2017-12-27T10:02:00.308Z,3.00
2017-12-27T10:04:27.873Z,3.00
2017-12-27T10:06:56.186Z,3.10
2017-12-27T10:09:24.522Z,3.10
2017-12-27T10:11:52.064Z,3.10
2017-12-27T10:14:20.401Z,3.20
2017-12-27T10:16:47.975Z,3.10
2017-12-27T10:19:15.737Z,3.20
2017-12-27T10:21:44.075Z,3.30
2017-12-27T10:24:11.620Z,3.30
2017-12-27T10:26:39.948Z,3.40
2017-12-27T10:29:07.510Z,3.30
2017-12-27T10:31:35.071Z,3.40
2017-12-27T10:34:03.391Z,3.60
2017-12-27T10:36:30.980Z,3.60
2017-12-27T10:38:58.521Z,3.70
2017-12-27T10:41:26.085Z,3.70
2017-12-27T10:43:53.653Z,3.80
2017-12-27T10:46:21.979Z,4.00
2017-12-27T10:48:49.527Z,4.00
2017-12-27T10:51:17.875Z,4.20
2017-12-27T10:53:46.417Z,4.20
2017-12-27T10:56:13.964Z,4.30
2017-12-27T10:58:41.529Z,4.40
2017-12-27T11:01:09.068Z,4.50
2017-12-27T11:03:36.640Z,4.50
2017-12-27T11:06:04.194Z,4.60
2017-12-27T11:08:31.758Z,4.60
2017-12-27T11:11:00.069Z,4.60
2017-12-27T11:13:27.624Z,4.60
2017-12-27T11:15:56.002Z,4.70
2017-12-27T11:18:23.659Z,4.60
2017-12-27T11:20:51.219Z,4.70
2017-12-27T11:23:19.744Z,4.70
2017-12-27T11:25:47.349Z,4.70
2017-12-27T11:28:14.942Z,4.70
2017-12-27T11:30:42.511Z,4.70
2017-12-27T11:33:10.078Z,4.70
2017-12-27T11:35:37.650Z,4.70
2017-12-27T11:38:07.893Z,4.70
2017-12-27T11:40:36.230Z,4.60
2017-12-27T11:43:03.773Z,4.60
2017-12-27T11:45:32.109Z,4.50
2017-12-27T11:47:59.697Z,4.50
2017-12-27T11:50:27.260Z,4.50
2017-12-27T11:52:55.564Z,4.40
2017-12-27T11:55:23.134Z,4.40
2017-12-27T11:57:51.445Z,4.40
2017-12-27T12:00:19.772Z,4.40
2017-12-27T12:02:47.323Z,4.30
2017-12-27T12:05:15.724Z,4.40
2017-12-27T12:07:44.130Z,4.40
2017-12-27T12:10:11.876Z,4.40
2017-12-27T12:12:39.468Z,4.40
2017-12-27T12:15:07.024Z,4.40
2017-12-27T12:17:34.584Z,4.50
2017-12-27T12:20:02.169Z,4.40
2017-12-27T12:22:29.735Z,4.40
2017-12-27T12:24:58.052Z,4.40
2017-12-27T12:27:25.625Z,4.40
2017-12-27T12:29:53.937Z,4.40
2017-12-27T12:32:22.256Z,4.40
2017-12-27T12:34:49.800Z,4.40
2017-12-27T12:37:17.385Z,4.40
2017-12-27T12:39:45.704Z,4.40
2017-12-27T12:42:14.031Z,4.40
2017-12-27T12:44:41.577Z,4.40
2017-12-27T12:47:09.919Z,4.40
2017-12-27T12:49:37.472Z,4.40
2017-12-27T12:52:05.789Z,4.40
2017-12-27T12:54:34.164Z,4.40
2017-12-27T12:57:01.709Z,4.40
2017-12-27T12:59:30.037Z,4.40
2017-12-27T13:01:57.585Z,4.40
2017-12-27T13:04:25.157Z,4.40
2017-12-27T13:06:52.701Z,4.40
2017-12-27T13:09:20.261Z,4.30
2017-12-27T13:11:47.836Z,4.30
2017-12-27T13:14:15.408Z,4.30
2017-12-27T13:16:42.961Z,4.20
2017-12-27T13:19:10.533Z,4.20
2017-12-27T13:21:38.900Z,4.20
2017-12-27T13:24:06.497Z,4.10
2017-12-27T13:26:34.050Z,4.20
2017-12-27T13:29:01.609Z,4.20
2017-12-27T13:31:29.168Z,4.10
2017-12-27T13:33:57.529Z,4.00
2017-12-27T13:36:25.084Z,4.00
2017-12-27T13:38:52.643Z,4.00
2017-12-27T13:41:20.217Z,4.00
2017-12-27T13:43:47.792Z,4.00
2017-12-27T13:46:15.357Z,3.90
2017-12-27T13:48:42.909Z,3.90
2017-12-27T13:51:10.479Z,3.90
2017-12-27T13:53:38.038Z,3.90
2017-12-27T13:56:05.613Z,3.80
2017-12-27T13:58:33.158Z,3.80
2017-12-27T14:01:00.735Z,3.80
2017-12-27T14:03:28.276Z,3.80
2017-12-27T14:05:55.820Z,3.70
2017-12-27T14:08:23.390Z,3.70
2017-12-27T14:10:50.961Z,3.80
2017-12-27T14:13:18.533Z,3.70
2017-12-27T14:15:46.849Z,3.70
2017-12-27T14:18:14.410Z,3.70
2017-12-27T14:20:42.734Z,3.70
2017-12-27T14:23:10.301Z,3.70
2017-12-27T14:25:38.613Z,3.70
2017-12-27T14:28:06.240Z,3.70
2017-12-27T14:30:33.788Z,3.70
2017-12-27T14:33:01.364Z,3.70
2017-12-27T14:35:29.688Z,3.70
2017-12-27T14:37:57.256Z,3.70
2017-12-27T14:40:24.805Z,3.70
2017-12-27T14:42:52.380Z,3.70
2017-12-27T14:45:19.926Z,3.60
2017-12-27T14:47:47.476Z,3.60
2017-12-27T14:50:16.043Z,3.60
2017-12-27T14:52:43.597Z,3.60
2017-12-27T14:55:11.169Z,3.60
2017-12-27T14:57:38.744Z,3.60
2017-12-27T15:00:07.077Z,3.50
2017-12-27T15:02:34.621Z,3.50
2017-12-27T15:05:02.977Z,3.50
2017-12-27T15:07:30.520Z,3.50
2017-12-27T15:09:58.861Z,3.50
2017-12-27T15:12:27.180Z,3.50
2017-12-27T15:14:54.748Z,3.50
2017-12-27T15:17:22.307Z,3.60
2017-12-27T15:19:49.933Z,3.60
2017-12-27T15:22:17.492Z,3.60
2017-12-27T15:24:45.665Z,3.60
2017-12-27T15:27:13.238Z,3.60
2017-12-27T15:29:41.552Z,3.60
2017-12-27T15:32:09.122Z,3.60
2017-12-27T15:34:37.444Z,3.70
2017-12-27T15:37:05.021Z,3.70
2017-12-27T15:39:34.126Z,3.70
2017-12-27T15:42:02.461Z,3.70
2017-12-27T15:44:30.017Z,3.70
2017-12-27T15:46:58.357Z,3.70
2017-12-27T15:49:25.915Z,3.70
2017-12-27T15:51:54.253Z,3.70
2017-12-27T15:54:21.810Z,3.70
2017-12-27T15:56:49.397Z,3.70
2017-12-27T15:59:16.950Z,3.70
2017-12-27T16:01:45.280Z,3.70
2017-12-27T16:04:12.844Z,3.60
2017-12-27T16:06:42.050Z,3.70
2017-12-27T16:09:09.620Z,3.60
2017-12-27T16:11:37.171Z,3.70
2017-12-27T16:14:04.740Z,3.70
2017-12-27T16:16:32.289Z,3.60
2017-12-27T16:18:59.860Z,3.60
2017-12-27T16:21:27.424Z,3.60
2017-12-27T16:23:54.988Z,3.60
2017-12-27T16:26:22.537Z,3.60
2017-12-27T16:28:50.864Z,3.60
2017-12-27T16:31:18.417Z,3.50
2017-12-27T16:33:46.761Z,3.60
2017-12-27T16:36:14.317Z,3.60
2017-12-27T16:38:42.653Z,3.50
2017-12-27T16:41:10.201Z,3.50
2017-12-27T16:43:38.532Z,3.50
2017-12-27T16:46:06.084Z,3.50
2017-12-27T16:48:34.416Z,3.40
2017-12-27T16:51:01.965Z,3.40
2017-12-27T16:53:30.272Z,3.30
2017-12-27T16:55:58.604Z,3.30
2017-12-27T16:58:26.144Z,3.30
2017-12-27T17:00:53.720Z,3.20
2017-12-27T17:03:21.271Z,3.20
2017-12-27T17:05:48.840Z,3.30
2017-12-27T17:08:16.384Z,3.20
2017-12-27T17:10:44.716Z,3.20
2017-12-27T17:13:12.260Z,3.20
2017-12-27T17:15:40.605Z,3.10
2017-12-27T17:18:08.176Z,3.10
2017-12-27T17:20:35.744Z,3.10
2017-12-27T17:23:04.065Z,3.10
2017-12-27T17:25:31.651Z,3.10
2017-12-27T17:27:59.197Z,3.10
2017-12-27T17:30:26.756Z,3.00
2017-12-27T17:32:54.321Z,3.00
2017-12-27T17:35:21.869Z,3.10
2017-12-27T17:37:50.208Z,3.00
2017-12-27T17:40:17.758Z,3.00
2017-12-27T17:42:46.662Z,3.10
2017-12-27T17:45:14.976Z,3.10
2017-12-27T17:47:43.318Z,3.20
2017-12-27T17:50:10.861Z,3.20
2017-12-27T17:52:39.209Z,3.20
2017-12-27T17:55:06.765Z,3.20
2017-12-27T17:57:34.329Z,3.20
2017-12-27T18:00:02.645Z,3.20
2017-12-27T18:02:30.213Z,3.20
2017-12-27T18:04:58.533Z,3.10
2017-12-27T18:07:26.103Z,3.10
2017-12-27T18:09:54.417Z,3.10
2017-12-27T18:12:22.753Z,3.00
2017-12-27T18:14:50.302Z,3.00
2017-12-27T18:17:18.622Z,3.00
2017-12-27T18:19:46.194Z,3.00
2017-12-27T18:22:14.894Z,2.90
2017-12-27T18:24:43.249Z,2.90
2017-12-27T18:27:10.801Z,2.90
2017-12-27T18:29:38.377Z,2.90
2017-12-27T18:32:05.945Z,2.90
2017-12-27T18:34:33.505Z,2.90
2017-12-27T18:37:01.064Z,2.90
2017-12-27T18:39:28.637Z,2.80
2017-12-27T18:41:56.190Z,2.80
2017-12-27T18:44:24.534Z,2.80
2017-12-27T18:46:52.080Z,2.80
2017-12-27T18:49:19.652Z,2.80
2017-12-27T18:51:47.985Z,2.70
2017-12-27T18:54:16.415Z,2.70
2017-12-27T18:56:44.944Z,2.70
2017-12-27T18:59:12.521Z,2.70
2017-12-27T19:01:40.073Z,2.60
2017-12-27T19:04:07.630Z,2.50
2017-12-27T19:06:35.196Z,2.50
2017-12-27T19:09:03.598Z,2.50
2017-12-27T19:11:32.110Z,2.50
2017-12-27T19:13:59.924Z,2.50
2017-12-27T19:16:27.776Z,2.50
2017-12-27T19:18:56.114Z,2.50
2017-12-27T19:21:23.688Z,2.40
2017-12-27T19:23:51.229Z,2.50
2017-12-27T19:26:18.795Z,2.40
2017-12-27T19:28:46.328Z,2.40
2017-12-27T19:31:14.658Z,2.30
2017-12-27T19:33:42.195Z,2.30
2017-12-27T19:36:09.776Z,2.30
2017-12-27T19:38:37.308Z,2.20
2017-12-27T19:41:04.874Z,2.20
2017-12-27T19:43:33.195Z,2.20
2017-12-27T19:46:00.738Z,2.10
2017-12-27T19:48:28.304Z,2.10
2017-12-27T19:50:55.843Z,2.10
2017-12-27T19:53:23.420Z,2.00
2017-12-27T19:55:50.968Z,2.00
2017-12-27T19:58:18.540Z,1.90
2017-12-27T20:00:46.084Z,1.90
2017-12-27T20:03:13.639Z,1.80
2017-12-27T20:05:41.939Z,1.70
2017-12-27T20:08:10.264Z,1.70
2017-12-27T20:10:37.828Z,1.70
2017-12-27T20:13:06.159Z,1.70
2017-12-27T20:15:33.697Z,1.70
2017-12-27T20:18:01.269Z,1.60
2017-12-27T20:20:28.806Z,1.60
2017-12-27T20:22:56.362Z,1.50
2017-12-27T20:25:24.696Z,1.50
2017-12-27T20:27:52.235Z,1.50
2017-12-27T20:30:19.786Z,1.50
2017-12-27T20:32:47.325Z,1.60
2017-12-27T20:35:14.925Z,1.60
2017-12-27T20:37:42.462Z,1.60
2017-12-27T20:40:10.024Z,1.60
2017-12-27T20:42:37.566Z,1.50
2017-12-27T20:45:05.125Z,1.50
2017-12-27T20:47:32.688Z,1.50
2017-12-27T20:50:00.243Z,1.40
2017-12-27T20:52:27.779Z,1.40
2017-12-27T20:54:56.129Z,1.40
2017-12-27T20:57:23.721Z,1.40
2017-12-27T20:59:51.254Z,1.40
2017-12-27T21:02:18.806Z,1.30
2017-12-27T21:04:46.336Z,1.30
2017-12-27T21:07:13.903Z,1.20
2017-12-27T21:09:42.296Z,1.10
2017-12-27T21:12:09.980Z,1.10
2017-12-27T21:14:37.461Z,1.10
2017-12-27T21:17:05.043Z,1.00
2017-12-27T21:19:32.575Z,1.00
2017-12-27T21:22:00.136Z,1.00
2017-12-27T21:24:28.444Z,0.90
2017-12-27T21:26:56.769Z,0.90
2017-12-27T21:29:24.316Z,0.90
2017-12-27T21:31:52.646Z,0.90
2017-12-27T21:34:20.185Z,0.90
2017-12-27T21:36:47.835Z,0.90
2017-12-27T21:39:15.406Z,0.80
2017-12-27T21:41:42.944Z,0.70
2017-12-27T21:44:10.508Z,0.70
2017-12-27T21:46:38.060Z,0.70
2017-12-27T21:49:11.160Z,0.60
2017-12-27T21:51:38.694Z,0.50
2017-12-27T21:54:06.268Z,0.50
2017-12-27T21:56:33.811Z,0.50
2017-12-27T21:59:07.077Z,0.40
2017-12-27T22:01:40.192Z,0.40
2017-12-27T22:04:07.750Z,0.40
2017-12-27T22:06:35.283Z,0.30
2017-12-27T22:09:02.843Z,0.20
2017-12-27T22:11:30.383Z,0.10
2017-12-27T22:13:57.951Z,0.10
2017-12-27T22:16:26.255Z,0.00
2017-12-27T22:18:54.559Z,0.00
2017-12-27T22:21:22.891Z,0.00
2017-12-27T22:23:50.436Z,-0.10
2017-12-27T22:26:18.763Z,0.00
2017-12-27T22:28:46.304Z,-0.10
2017-12-27T22:31:13.866Z,0.00
2017-12-27T22:33:41.404Z,0.00
2017-12-27T22:36:08.955Z,0.00
2017-12-27T22:38:36.495Z,0.00
2017-12-27T22:41:04.056Z,0.00
2017-12-27T22:43:31.651Z,0.00
2017-12-27T22:45:59.367Z,0.00
2017-12-27T22:48:26.912Z,-0.10
2017-12-27T22:50:54.551Z,-0.10
2017-12-27T22:53:22.096Z,-0.10
2017-12-27T22:55:49.639Z,-0.10
2017-12-27T22:58:17.207Z,-0.10
2017-12-27T23:00:44.748Z,0.00
2017-12-27T23:03:12.311Z,-0.10
2017-12-27T23:05:40.614Z,-0.10
2017-12-27T23:08:09.019Z,-0.10
2017-12-27T23:10:36.572Z,-0.10
2017-12-27T23:13:04.137Z,0.00
2017-12-27T23:15:31.850Z,0.00
2017-12-27T23:18:00.195Z,0.00
2017-12-27T23:20:27.736Z,0.00
2017-12-27T23:22:55.563Z,0.00
2017-12-27T23:25:23.111Z,0.00
2017-12-27T23:27:50.713Z,0.00
2017-12-27T23:30:19.017Z,0.00
2017-12-27T23:32:47.352Z,0.00
2017-12-27T23:35:15.088Z,-0.10
2017-12-27T23:37:43.395Z,0.00
2017-12-27T23:40:11.727Z,0.00
2017-12-27T23:42:39.258Z,0.00
2017-12-27T23:45:06.832Z,0.00
2017-12-27T23:47:34.371Z,0.00
2017-12-27T23:50:01.932Z,-0.10
2017-12-27T23:52:30.239Z,-0.20
2017-12-27T23:54:58.575Z,-0.30
2017-12-27T23:57:26.116Z,-0.30
2017-12-27T23:59:53.678Z,-0.30
